<?xml version="1.0" encoding="UTF-8" standalone="no" ?>
<gpx xmlns="http://www.topografix.com/GPX/1/1" xmlns:xsi="http://www.w3.org/2001/XMLSchema-instance" xsi:schemaLocation="http://www.topografix.com/GPX/1/1 http://www.topografix.com/GPX/1/1/gpx.xsd" version="1.1" creator="VisuGPX - https://www.visugpx.com">
  <metadata>
    <name>GTP Octobre 2020 PM</name>
  </metadata>
  <trk>
    <name><![CDATA[2020-10-10 16:45:04]]></name>
    <trkseg>
      <trkpt lat="48.74383" lon="1.94949">
        <ele>180.17</ele>
        <time>2020-10-10T12:00:03Z</time>
      </trkpt>
      <trkpt lat="48.74281" lon="1.94901">
        <ele>178.99</ele>
        <time>2020-10-10T12:02:00Z</time>
      </trkpt>
      <trkpt lat="48.74251" lon="1.95021">
        <ele>177.93</ele>
        <time>2020-10-10T12:03:17Z</time>
      </trkpt>
      <trkpt lat="48.74228" lon="1.95143">
        <ele>177.74</ele>
        <time>2020-10-10T12:04:31Z</time>
      </trkpt>
      <trkpt lat="48.74196" lon="1.95274">
        <ele>177.31</ele>
        <time>2020-10-10T12:05:50Z</time>
      </trkpt>
      <trkpt lat="48.7424" lon="1.95377">
        <ele>177.5</ele>
        <time>2020-10-10T12:07:09Z</time>
      </trkpt>
      <trkpt lat="48.74227" lon="1.95507">
        <ele>177.75</ele>
        <time>2020-10-10T12:08:25Z</time>
      </trkpt>
      <trkpt lat="48.74207" lon="1.95627">
        <ele>177.82</ele>
        <time>2020-10-10T12:09:44Z</time>
      </trkpt>
      <trkpt lat="48.74247" lon="1.95748">
        <ele>177.78</ele>
        <time>2020-10-10T12:11:10Z</time>
      </trkpt>
      <trkpt lat="48.74239" lon="1.95892">
        <ele>177.46</ele>
        <time>2020-10-10T12:12:35Z</time>
      </trkpt>
      <trkpt lat="48.74196" lon="1.9602">
        <ele>177.06</ele>
        <time>2020-10-10T12:13:53Z</time>
      </trkpt>
      <trkpt lat="48.74231" lon="1.9615">
        <ele>176.6</ele>
        <time>2020-10-10T12:15:19Z</time>
      </trkpt>
      <trkpt lat="48.74258" lon="1.96287">
        <ele>175.96</ele>
        <time>2020-10-10T12:16:46Z</time>
      </trkpt>
      <trkpt lat="48.7427" lon="1.96412">
        <ele>174.1</ele>
        <time>2020-10-10T12:18:10Z</time>
      </trkpt>
      <trkpt lat="48.74327" lon="1.96507">
        <ele>172.77</ele>
        <time>2020-10-10T12:19:28Z</time>
      </trkpt>
      <trkpt lat="48.74392" lon="1.96598">
        <ele>172.44</ele>
        <time>2020-10-10T12:20:40Z</time>
      </trkpt>
      <trkpt lat="48.74437" lon="1.9672">
        <ele>172.61</ele>
        <time>2020-10-10T12:21:59Z</time>
      </trkpt>
      <trkpt lat="48.74467" lon="1.96856">
        <ele>172.99</ele>
        <time>2020-10-10T12:23:23Z</time>
      </trkpt>
      <trkpt lat="48.74523" lon="1.96966">
        <ele>172.1</ele>
        <time>2020-10-10T12:25:22Z</time>
      </trkpt>
      <trkpt lat="48.74562" lon="1.97146">
        <ele>171.94</ele>
        <time>2020-10-10T12:27:33Z</time>
      </trkpt>
      <trkpt lat="48.74659" lon="1.97244">
        <ele>171.28</ele>
        <time>2020-10-10T12:30:02Z</time>
      </trkpt>
      <trkpt lat="48.7459" lon="1.97493">
        <ele>169.94</ele>
        <time>2020-10-10T12:32:31Z</time>
      </trkpt>
      <trkpt lat="48.74493" lon="1.97619">
        <ele>169.15</ele>
        <time>2020-10-10T12:34:19Z</time>
      </trkpt>
      <trkpt lat="48.74422" lon="1.97722">
        <ele>168.13</ele>
        <time>2020-10-10T12:35:37Z</time>
      </trkpt>
      <trkpt lat="48.74357" lon="1.97906">
        <ele>168.02</ele>
        <time>2020-10-10T12:37:26Z</time>
      </trkpt>
      <trkpt lat="48.74373" lon="1.98018">
        <ele>168.18</ele>
        <time>2020-10-10T12:40:09Z</time>
      </trkpt>
      <trkpt lat="48.74463" lon="1.98138">
        <ele>167.06</ele>
        <time>2020-10-10T12:41:54Z</time>
      </trkpt>
      <trkpt lat="48.74529" lon="1.98278">
        <ele>166.12</ele>
        <time>2020-10-10T12:43:30Z</time>
      </trkpt>
      <trkpt lat="48.74586" lon="1.98437">
        <ele>164.97</ele>
        <time>2020-10-10T12:45:11Z</time>
      </trkpt>
      <trkpt lat="48.74613" lon="1.98596">
        <ele>163.71</ele>
        <time>2020-10-10T12:47:03Z</time>
      </trkpt>
      <trkpt lat="48.74619" lon="1.98894">
        <ele>164.63</ele>
        <time>2020-10-10T12:49:50Z</time>
      </trkpt>
      <trkpt lat="48.74559" lon="1.99066">
        <ele>169</ele>
        <time>2020-10-10T12:51:50Z</time>
      </trkpt>
      <trkpt lat="48.74597" lon="1.99173">
        <ele>169.51</ele>
        <time>2020-10-10T12:54:21Z</time>
      </trkpt>
      <trkpt lat="48.74706" lon="1.99141">
        <ele>160.69</ele>
        <time>2020-10-10T12:56:08Z</time>
      </trkpt>
      <trkpt lat="48.74802" lon="1.99202">
        <ele>153.48</ele>
        <time>2020-10-10T12:58:28Z</time>
      </trkpt>
      <trkpt lat="48.74821" lon="1.99195">
        <ele>153.68</ele>
        <time>2020-10-10T13:00:49Z</time>
      </trkpt>
      <trkpt lat="48.74853" lon="1.99267">
        <ele>163.94</ele>
        <time>2020-10-10T13:03:36Z</time>
      </trkpt>
      <trkpt lat="48.75197" lon="1.99603">
        <ele>181.11</ele>
        <time>2020-10-10T13:10:37Z</time>
      </trkpt>
      <trkpt lat="48.75341" lon="1.9969">
        <ele>178.6</ele>
        <time>2020-10-10T13:12:48Z</time>
      </trkpt>
      <trkpt lat="48.75479" lon="1.9978">
        <ele>176.96</ele>
        <time>2020-10-10T13:14:39Z</time>
      </trkpt>
      <trkpt lat="48.75607" lon="1.99855">
        <ele>176.59</ele>
        <time>2020-10-10T13:16:30Z</time>
      </trkpt>
      <trkpt lat="48.75725" lon="1.9994">
        <ele>176.71</ele>
        <time>2020-10-10T13:18:42Z</time>
      </trkpt>
      <trkpt lat="48.75722" lon="1.9987">
        <ele>176.99</ele>
        <time>2020-10-10T13:21:24Z</time>
      </trkpt>
      <trkpt lat="48.75718" lon="1.99673">
        <ele>177.76</ele>
        <time>2020-10-10T13:23:17Z</time>
      </trkpt>
      <trkpt lat="48.75708" lon="1.99488">
        <ele>178.87</ele>
        <time>2020-10-10T13:24:45Z</time>
      </trkpt>
      <trkpt lat="48.75699" lon="1.99327">
        <ele>179.37</ele>
        <time>2020-10-10T13:26:15Z</time>
      </trkpt>
      <trkpt lat="48.75694" lon="1.99167">
        <ele>179.59</ele>
        <time>2020-10-10T13:27:42Z</time>
      </trkpt>
      <trkpt lat="48.75686" lon="1.9901">
        <ele>179.25</ele>
        <time>2020-10-10T13:29:00Z</time>
      </trkpt>
      <trkpt lat="48.75682" lon="1.98867">
        <ele>179.93</ele>
        <time>2020-10-10T13:30:16Z</time>
      </trkpt>
      <trkpt lat="48.75727" lon="1.98842">
        <ele>179.5</ele>
        <time>2020-10-10T13:33:12Z</time>
      </trkpt>
      <trkpt lat="48.75414" lon="1.98121">
        <ele>181.19</ele>
        <time>2020-10-10T13:51:22Z</time>
      </trkpt>
      <trkpt lat="48.75354" lon="1.97972">
        <ele>176.54</ele>
        <time>2020-10-10T13:52:51Z</time>
      </trkpt>
      <trkpt lat="48.75326" lon="1.97841">
        <ele>174.55</ele>
        <time>2020-10-10T13:53:58Z</time>
      </trkpt>
      <trkpt lat="48.75355" lon="1.9772">
        <ele>175.56</ele>
        <time>2020-10-10T13:55:02Z</time>
      </trkpt>
      <trkpt lat="48.75396" lon="1.97634">
        <ele>175.6</ele>
        <time>2020-10-10T13:56:06Z</time>
      </trkpt>
      <trkpt lat="48.754" lon="1.97533">
        <ele>176.21</ele>
        <time>2020-10-10T13:56:50Z</time>
      </trkpt>
      <trkpt lat="48.75408" lon="1.97511">
        <ele>176.4</ele>
        <time>2020-10-10T13:57:01Z</time>
      </trkpt>
      <trkpt lat="48.7541" lon="1.97486">
        <ele>176.63</ele>
        <time>2020-10-10T13:57:10Z</time>
      </trkpt>
      <trkpt lat="48.75419" lon="1.97467">
        <ele>176.79</ele>
        <time>2020-10-10T13:57:20Z</time>
      </trkpt>
      <trkpt lat="48.75502" lon="1.97192">
        <ele>177.67</ele>
        <time>2020-10-10T14:00:05Z</time>
      </trkpt>
      <trkpt lat="48.75518" lon="1.97155">
        <ele>177.27</ele>
        <time>2020-10-10T14:00:35Z</time>
      </trkpt>
      <trkpt lat="48.75519" lon="1.97125">
        <ele>177.18</ele>
        <time>2020-10-10T14:01:41Z</time>
      </trkpt>
      <trkpt lat="48.75554" lon="1.97006">
        <ele>178.31</ele>
        <time>2020-10-10T14:02:49Z</time>
      </trkpt>
      <trkpt lat="48.75583" lon="1.96899">
        <ele>178.35</ele>
        <time>2020-10-10T14:03:39Z</time>
      </trkpt>
      <trkpt lat="48.75583" lon="1.96804">
        <ele>178.34</ele>
        <time>2020-10-10T14:04:38Z</time>
      </trkpt>
      <trkpt lat="48.75578" lon="1.96713">
        <ele>178.41</ele>
        <time>2020-10-10T14:05:32Z</time>
      </trkpt>
      <trkpt lat="48.75596" lon="1.96644">
        <ele>178.46</ele>
        <time>2020-10-10T14:10:22Z</time>
      </trkpt>
      <trkpt lat="48.7559" lon="1.96524">
        <ele>177.37</ele>
        <time>2020-10-10T14:11:38Z</time>
      </trkpt>
      <trkpt lat="48.75567" lon="1.96403">
        <ele>176.58</ele>
        <time>2020-10-10T14:12:48Z</time>
      </trkpt>
      <trkpt lat="48.75606" lon="1.96311">
        <ele>176.61</ele>
        <time>2020-10-10T14:13:56Z</time>
      </trkpt>
      <trkpt lat="48.75606" lon="1.96291">
        <ele>176.58</ele>
        <time>2020-10-10T14:14:08Z</time>
      </trkpt>
      <trkpt lat="48.75543" lon="1.96213">
        <ele>176.49</ele>
        <time>2020-10-10T14:15:24Z</time>
      </trkpt>
      <trkpt lat="48.75535" lon="1.96212">
        <ele>176.45</ele>
        <time>2020-10-10T14:15:34Z</time>
      </trkpt>
      <trkpt lat="48.75543" lon="1.96183">
        <ele>176.3</ele>
        <time>2020-10-10T14:16:05Z</time>
      </trkpt>
      <trkpt lat="48.75579" lon="1.96176">
        <ele>176.7</ele>
        <time>2020-10-10T14:16:45Z</time>
      </trkpt>
      <trkpt lat="48.75614" lon="1.96047">
        <ele>176.94</ele>
        <time>2020-10-10T14:18:06Z</time>
      </trkpt>
      <trkpt lat="48.75597" lon="1.95907">
        <ele>177.71</ele>
        <time>2020-10-10T14:19:22Z</time>
      </trkpt>
      <trkpt lat="48.75579" lon="1.95776">
        <ele>177.04</ele>
        <time>2020-10-10T14:20:41Z</time>
      </trkpt>
      <trkpt lat="48.75572" lon="1.95767">
        <ele>176.69</ele>
        <time>2020-10-10T14:20:52Z</time>
      </trkpt>
      <trkpt lat="48.75565" lon="1.95755">
        <ele>176.77</ele>
        <time>2020-10-10T14:21:00Z</time>
      </trkpt>
      <trkpt lat="48.75503" lon="1.95659">
        <ele>176.89</ele>
        <time>2020-10-10T14:22:17Z</time>
      </trkpt>
      <trkpt lat="48.75439" lon="1.95587">
        <ele>177.29</ele>
        <time>2020-10-10T14:23:22Z</time>
      </trkpt>
      <trkpt lat="48.75352" lon="1.95555">
        <ele>176.63</ele>
        <time>2020-10-10T14:24:28Z</time>
      </trkpt>
      <trkpt lat="48.75289" lon="1.95544">
        <ele>176.77</ele>
        <time>2020-10-10T14:25:32Z</time>
      </trkpt>
      <trkpt lat="48.75279" lon="1.95577">
        <ele>176.44</ele>
        <time>2020-10-10T14:25:50Z</time>
      </trkpt>
      <trkpt lat="48.75225" lon="1.95722">
        <ele>177.01</ele>
        <time>2020-10-10T14:27:25Z</time>
      </trkpt>
      <trkpt lat="48.7514" lon="1.95852">
        <ele>177.18</ele>
        <time>2020-10-10T14:29:09Z</time>
      </trkpt>
      <trkpt lat="48.75105" lon="1.95895">
        <ele>177.37</ele>
        <time>2020-10-10T14:29:49Z</time>
      </trkpt>
      <trkpt lat="48.75082" lon="1.95935">
        <ele>177.2</ele>
        <time>2020-10-10T14:30:23Z</time>
      </trkpt>
      <trkpt lat="48.75031" lon="1.95937">
        <ele>177.9</ele>
        <time>2020-10-10T14:31:48Z</time>
      </trkpt>
      <trkpt lat="48.74992" lon="1.95813">
        <ele>178.27</ele>
        <time>2020-10-10T14:33:04Z</time>
      </trkpt>
      <trkpt lat="48.74954" lon="1.95686">
        <ele>178.44</ele>
        <time>2020-10-10T14:34:20Z</time>
      </trkpt>
      <trkpt lat="48.74942" lon="1.95646">
        <ele>179.36</ele>
        <time>2020-10-10T14:34:47Z</time>
      </trkpt>
      <trkpt lat="48.74937" lon="1.95637">
        <ele>179.29</ele>
        <time>2020-10-10T14:34:55Z</time>
      </trkpt>
      <trkpt lat="48.74896" lon="1.95507">
        <ele>180.63</ele>
        <time>2020-10-10T14:36:09Z</time>
      </trkpt>
      <trkpt lat="48.74847" lon="1.95388">
        <ele>181.88</ele>
        <time>2020-10-10T14:37:25Z</time>
      </trkpt>
      <trkpt lat="48.74832" lon="1.95278">
        <ele>183</ele>
        <time>2020-10-10T14:38:35Z</time>
      </trkpt>
      <trkpt lat="48.74814" lon="1.95239">
        <ele>183.25</ele>
        <time>2020-10-10T14:38:57Z</time>
      </trkpt>
      <trkpt lat="48.74726" lon="1.95201">
        <ele>185.09</ele>
        <time>2020-10-10T14:40:14Z</time>
      </trkpt>
      <trkpt lat="48.74673" lon="1.95144">
        <ele>185.99</ele>
        <time>2020-10-10T14:41:33Z</time>
      </trkpt>
      <trkpt lat="48.74589" lon="1.95097">
        <ele>187.08</ele>
        <time>2020-10-10T14:42:55Z</time>
      </trkpt>
      <trkpt lat="48.74503" lon="1.9506">
        <ele>187.69</ele>
        <time>2020-10-10T14:44:12Z</time>
      </trkpt>
      <trkpt lat="48.74457" lon="1.94991">
        <ele>188.47</ele>
        <time>2020-10-10T14:45:03Z</time>
      </trkpt>
    </trkseg>
  </trk>
</gpx>